EGKALFRG

Guest
Details From EGKA - Shoreham
To LFRG - Deauville Saint Gatien
Flight Number -
Tags generated
Created
Modified
Stats Distance 90 nm / 167 km
Max Altitude 2,900 ft / 884 m
Waypoints 3
Social Downloads 0
Likes 0
Share VATSIM

Download

Looking for another format? Having issues loading an existing format? Contact us
Advertisement - Login to hide

Notes

Basic altitude profile: - Ascent Rate: 2500ft/min - Ascent Speed: 250kts - Cruise Altitude: 35000ft - Cruise Speed: 300kts - Descent Rate: 1500ft/min - Descent Speed: 225kts Options: - Use NATs: yes - Use PACOTS: yes - Use low airways: yes - Use high airways: yes

Route

EGKA BOGNA LFRG

ID Type Via Altitude Latitude Longitude Leg Dist Tot Dist Heading (true) Name
O EGKA APT - 0 ft / 0 m 50.83580˚ -0.29481˚ - 0 nm - Shoreham
BOGNA FIX - 2,900 ft / 884 m 50.70194˚ -0.25167˚ 8 nm 8 nm 168° / 168° -
O LFRG APT - 0 ft / 0 m 49.36530˚ 0.15432˚ 81 nm 89 nm 169° / 169° Deauville Saint Gatien

Altitude Profile

Advertisement - Login to hide

EGKA

Details ICAO EGKA (ESH)
Name Shoreham
Region United Kingdom
Timezone Europe/London (UTC+0.0)
Stats Elevation 7 ft / 2 m (AMSL)
Location 50.835805° -0.294806°
Runways 4
Magnetic Variation 0.435° W

METAR

EGKA 121820Z 21011KT 9999 FEW018 06/05 Q1010

Decode

TAF

Not found

Departure Runways

ID Width Length Bearing (true) Bearing (mag) Surface Threshold Offset Overrun Length
02 59 ft / 18 m 3,408 ft / 1,039 m 21.56° 21.99° Asphalt 548 ft / 167 m 0 ft / 0 m
02R 59 ft / 18 m 2,849 ft / 868 m 21.56° 21.99° Grass 171 ft / 52 m 0 ft / 0 m
07 164 ft / 50 m 2,883 ft / 879 m 63.45° 63.88° Grass 0 ft / 0 m 0 ft / 0 m
13 59 ft / 18 m 1,739 ft / 530 m 124.90° 125.33° Grass 0 ft / 0 m 0 ft / 0 m
20 59 ft / 18 m 3,408 ft / 1,039 m 201.56° 201.99° Asphalt 367 ft / 112 m 0 ft / 0 m
20L 59 ft / 18 m 2,849 ft / 868 m 201.56° 201.99° Grass 171 ft / 52 m 0 ft / 0 m
25 164 ft / 50 m 2,883 ft / 879 m 243.46° 243.89° Grass 285 ft / 87 m 0 ft / 0 m
31 59 ft / 18 m 1,739 ft / 530 m 304.91° 305.34° Grass 394 ft / 120 m 0 ft / 0 m

LFRG

Details ICAO LFRG (DOL)
Name Deauville Saint Gatien
Region France
Timezone Europe/Paris (UTC+1.0)
Stats Elevation 479 ft / 146 m (AMSL)
Location 49.365296° 0.154324°
Runways 1
Magnetic Variation 0.143° W

METAR

LFRG 121830Z AUTO 21007KT 9999 FEW049 BKN160 OVC200 03/02 Q1013 NOSIG

Decode

TAF

Not found

Destination Runways

ID Width Length Bearing (true) Bearing (mag) Surface Threshold Offset Overrun Length
12 148 ft / 45 m 8,344 ft / 2,543 m 117.22° 117.36° Asphalt 1,476 ft / 450 m 0 ft / 0 m
30 148 ft / 45 m 8,344 ft / 2,543 m 297.25° 297.39° Asphalt 1,378 ft / 420 m 0 ft / 0 m

Approach Navaids

Runway Type Ident Frequency Range Bearing (true) Bearing (mag) Slope Elevation
30 Localiser DV 111.55 MHz 18 nm / 33 km 297.22° 297.36° - 479 ft / 146 m (AMSL)
30 Glidescope DV 111.55 MHz 10 nm / 19 km 297.23° 297.38° 3.00° 479 ft / 146 m (AMSL)
30 DME DV 111.55 MHz 18 nm / 33 km - - - 466 ft / 142 m (AMSL)